createdAt,value
2022-07-31T00:00:19.259Z,99.90
2022-07-31T00:02:21.082Z,99.90
2022-07-31T00:04:25.662Z,99.90
2022-07-31T00:06:27.436Z,99.90
2022-07-31T00:08:30.652Z,99.90
2022-07-31T00:10:32.865Z,99.90
2022-07-31T00:12:37.448Z,99.90
2022-07-31T00:14:39.119Z,99.90
2022-07-31T00:16:40.844Z,99.90
2022-07-31T00:18:42.551Z,99.90
2022-07-31T00:20:44.568Z,99.90
2022-07-31T00:22:47.305Z,99.90
2022-07-31T00:24:48.947Z,99.90
2022-07-31T00:26:52.692Z,99.90
2022-07-31T00:28:54.719Z,99.90
2022-07-31T00:30:56.388Z,99.90
2022-07-31T00:32:58.064Z,99.90
2022-07-31T00:34:59.770Z,99.90
2022-07-31T00:37:01.661Z,99.90
2022-07-31T00:39:03.775Z,99.90
2022-07-31T00:41:05.457Z,99.90
2022-07-31T00:43:07.100Z,99.90
2022-07-31T00:45:09.764Z,99.90
2022-07-31T00:47:11.630Z,99.90
2022-07-31T00:49:17.159Z,99.90
2022-07-31T00:51:18.865Z,99.90
2022-07-31T00:53:20.529Z,99.90
2022-07-31T00:55:22.887Z,99.90
2022-07-31T00:57:24.617Z,99.90
2022-07-31T00:59:27.210Z,99.90
2022-07-31T01:01:29.033Z,99.90
2022-07-31T01:03:31.116Z,99.90
2022-07-31T01:05:32.797Z,99.90
2022-07-31T01:07:34.571Z,99.90
2022-07-31T01:09:36.209Z,99.90
2022-07-31T01:11:44.008Z,99.90
2022-07-31T01:13:49.216Z,99.90
2022-07-31T01:15:51.454Z,99.90
2022-07-31T01:17:54.197Z,99.90
2022-07-31T01:19:55.861Z,99.90
2022-07-31T01:22:33.734Z,99.90
2022-07-31T01:24:42.386Z,99.90
2022-07-31T01:27:04.221Z,99.90
2022-07-31T01:29:24.482Z,99.90
2022-07-31T01:31:29.954Z,99.90
2022-07-31T01:33:34.473Z,99.90
2022-07-31T01:35:41.065Z,99.90
2022-07-31T01:37:45.391Z,99.90
2022-07-31T01:39:50.742Z,99.90
2022-07-31T01:41:53.418Z,99.90
2022-07-31T01:43:56.957Z,99.90
2022-07-31T01:46:00.963Z,99.90
2022-07-31T01:48:03.055Z,99.90
2022-07-31T01:50:05.597Z,99.90
2022-07-31T01:52:07.955Z,99.90
2022-07-31T01:54:10.361Z,99.90
2022-07-31T01:56:12.650Z,99.90
2022-07-31T01:58:15.206Z,99.90
2022-07-31T02:00:34.095Z,99.90
2022-07-31T02:02:42.274Z,99.90
2022-07-31T02:04:47.117Z,99.90
2022-07-31T02:06:52.453Z,99.90
2022-07-31T02:08:55.252Z,99.90
2022-07-31T02:10:57.486Z,99.90
2022-07-31T02:12:59.817Z,99.90
2022-07-31T02:15:03.996Z,99.90
2022-07-31T02:17:05.889Z,99.90
2022-07-31T02:19:08.536Z,99.90
2022-07-31T02:21:10.427Z,99.90
2022-07-31T02:23:12.224Z,99.90
2022-07-31T02:25:13.981Z,99.90
2022-07-31T02:27:54.420Z,99.90
2022-07-31T02:29:37.885Z,99.90
2022-07-31T02:31:41.349Z,99.90
2022-07-31T02:33:45.169Z,99.90
2022-07-31T02:35:48.629Z,99.90
2022-07-31T02:37:51.375Z,99.90
2022-07-31T02:39:54.236Z,99.90
2022-07-31T02:41:58.027Z,99.90
2022-07-31T02:44:00.313Z,99.90
2022-07-31T02:46:02.935Z,99.90
2022-07-31T02:48:05.315Z,99.90
2022-07-31T02:50:07.440Z,99.90
2022-07-31T02:52:09.802Z,99.90
2022-07-31T02:54:11.474Z,99.90
2022-07-31T02:56:13.306Z,99.90
2022-07-31T02:58:15.020Z,99.90
2022-07-31T03:00:22.740Z,99.90
2022-07-31T03:02:24.525Z,99.90
2022-07-31T03:04:38.876Z,99.90
2022-07-31T03:06:40.717Z,99.90
2022-07-31T03:08:42.351Z,99.90
2022-07-31T03:10:44.127Z,99.90
2022-07-31T03:12:47.644Z,99.90
2022-07-31T03:14:49.335Z,99.90
2022-07-31T03:16:52.075Z,99.90
2022-07-31T03:18:54.155Z,99.90
2022-07-31T03:20:56.800Z,99.90
2022-07-31T03:22:59.629Z,99.90
2022-07-31T03:25:02.647Z,99.90
2022-07-31T03:27:04.319Z,99.90
2022-07-31T03:29:05.983Z,99.90
2022-07-31T03:31:27.690Z,99.90
2022-07-31T03:33:29.880Z,99.90
2022-07-31T03:35:31.562Z,99.90
2022-07-31T03:37:33.198Z,99.90
2022-07-31T03:39:34.854Z,99.90
2022-07-31T03:41:36.632Z,99.90
2022-07-31T03:43:44.458Z,99.90
2022-07-31T03:45:51.675Z,99.90
2022-07-31T03:47:53.406Z,99.90
2022-07-31T03:49:55.254Z,99.90
2022-07-31T03:51:57.163Z,99.90
2022-07-31T03:53:58.854Z,99.90
2022-07-31T03:56:02.344Z,99.90
2022-07-31T03:58:04.105Z,99.90
2022-07-31T04:00:07.911Z,99.90
2022-07-31T04:02:19.129Z,99.90
2022-07-31T04:04:20.895Z,99.90
2022-07-31T04:06:22.615Z,99.90
2022-07-31T04:08:24.308Z,99.90
2022-07-31T04:10:26.039Z,99.90
2022-07-31T04:12:27.687Z,99.90
2022-07-31T04:14:29.411Z,99.90
2022-07-31T04:16:31.091Z,99.90
2022-07-31T04:18:32.770Z,99.90
2022-07-31T04:20:34.915Z,99.90
2022-07-31T04:22:36.666Z,99.90
2022-07-31T04:24:38.584Z,99.90
2022-07-31T04:26:40.234Z,99.90
2022-07-31T04:28:41.962Z,99.90
2022-07-31T04:30:43.619Z,99.90
2022-07-31T04:32:45.422Z,99.90
2022-07-31T04:34:47.164Z,99.90
2022-07-31T04:36:48.838Z,99.90
2022-07-31T04:38:50.515Z,99.90
2022-07-31T04:40:52.213Z,99.90
2022-07-31T04:42:54.429Z,99.90
2022-07-31T04:44:56.113Z,99.90
2022-07-31T04:47:01.391Z,99.90
2022-07-31T04:49:03.148Z,99.90
2022-07-31T04:51:05.371Z,99.90
2022-07-31T04:53:07.410Z,99.90
2022-07-31T04:55:09.367Z,99.90
2022-07-31T04:57:11.031Z,99.90
2022-07-31T04:59:13.778Z,99.90
2022-07-31T05:01:15.509Z,99.90
2022-07-31T05:03:18.220Z,99.90
2022-07-31T05:05:19.917Z,99.90
2022-07-31T05:07:22.503Z,99.90
2022-07-31T05:09:25.355Z,99.90
2022-07-31T05:11:27.398Z,99.90
2022-07-31T05:13:29.113Z,99.90
2022-07-31T05:15:31.102Z,99.90
2022-07-31T05:17:32.751Z,99.90
2022-07-31T05:19:34.451Z,99.90
2022-07-31T05:21:47.135Z,99.90
2022-07-31T05:23:56.259Z,99.90
2022-07-31T05:25:57.901Z,99.90
2022-07-31T05:27:59.536Z,99.90
2022-07-31T05:30:01.260Z,99.90
2022-07-31T05:32:03.108Z,99.90
2022-07-31T05:34:04.883Z,99.90
2022-07-31T05:36:06.822Z,99.90
2022-07-31T05:38:11.948Z,99.90
2022-07-31T05:40:13.805Z,99.90
2022-07-31T05:42:15.483Z,99.90
2022-07-31T05:44:17.235Z,99.90
2022-07-31T05:46:18.954Z,99.90
2022-07-31T05:48:20.718Z,99.90
2022-07-31T05:50:23.139Z,99.90
2022-07-31T05:52:24.805Z,99.90
2022-07-31T05:54:26.620Z,99.90
2022-07-31T05:56:28.398Z,99.90
2022-07-31T05:58:30.057Z,99.90
2022-07-31T06:00:32.339Z,99.90
2022-07-31T06:02:34.410Z,99.90
2022-07-31T06:04:36.090Z,99.90
2022-07-31T06:06:37.766Z,99.90
2022-07-31T06:08:39.394Z,99.90
2022-07-31T06:10:41.064Z,99.90
2022-07-31T06:12:42.717Z,99.90
2022-07-31T06:14:44.490Z,99.90
2022-07-31T06:16:47.743Z,99.90
2022-07-31T06:18:49.394Z,99.90
2022-07-31T06:20:51.275Z,99.90
2022-07-31T06:22:53.156Z,99.90
2022-07-31T06:24:54.851Z,99.90
2022-07-31T06:26:58.682Z,99.90
2022-07-31T06:29:01.336Z,99.90
2022-07-31T06:31:03.050Z,99.90
2022-07-31T06:33:08.139Z,99.90
2022-07-31T06:35:10.451Z,99.90
2022-07-31T06:37:12.191Z,99.90
2022-07-31T06:39:13.878Z,99.90
2022-07-31T06:41:34.352Z,99.90
2022-07-31T06:43:36.031Z,99.90
2022-07-31T06:45:52.287Z,99.90
2022-07-31T06:47:54.225Z,99.90
2022-07-31T06:49:56.183Z,99.90
2022-07-31T06:51:57.831Z,99.90
2022-07-31T06:54:00.666Z,99.90
2022-07-31T06:56:02.392Z,99.90
2022-07-31T06:58:04.019Z,99.90
2022-07-31T07:00:19.869Z,99.90
2022-07-31T07:02:22.778Z,99.90
2022-07-31T07:04:24.448Z,99.90
2022-07-31T07:06:46.106Z,99.90
2022-07-31T07:08:47.925Z,99.90
2022-07-31T07:10:49.551Z,99.90
2022-07-31T07:12:51.222Z,99.90
2022-07-31T07:14:53.087Z,99.90
2022-07-31T07:16:54.830Z,99.90
2022-07-31T07:18:56.557Z,99.90
2022-07-31T07:20:58.306Z,99.90
2022-07-31T07:22:59.992Z,99.90
2022-07-31T07:25:01.832Z,99.90
2022-07-31T07:27:03.605Z,99.90
2022-07-31T07:29:05.257Z,99.90
2022-07-31T07:31:07.081Z,99.90
2022-07-31T07:33:08.824Z,99.90
2022-07-31T07:39:37.328Z,99.90
2022-07-31T07:41:39.051Z,99.90
2022-07-31T07:43:40.753Z,99.90
2022-07-31T07:45:45.093Z,99.90
2022-07-31T07:47:53.919Z,99.90
2022-07-31T07:50:08.483Z,99.90
2022-07-31T07:52:10.578Z,99.90
2022-07-31T07:54:12.723Z,99.90
2022-07-31T07:56:14.551Z,99.90
2022-07-31T07:58:16.269Z,99.90
2022-07-31T08:00:17.903Z,99.90
2022-07-31T08:02:19.650Z,99.90
2022-07-31T08:04:21.325Z,99.90
2022-07-31T08:06:23.460Z,99.90
2022-07-31T08:08:25.147Z,99.90
2022-07-31T08:10:26.954Z,99.90
2022-07-31T08:12:28.675Z,99.90
2022-07-31T08:14:30.509Z,99.90
2022-07-31T08:16:32.628Z,99.90
2022-07-31T08:18:34.330Z,99.90
2022-07-31T08:20:37.591Z,99.90
2022-07-31T08:22:39.321Z,99.90
2022-07-31T08:24:41.223Z,99.90
2022-07-31T08:27:01.609Z,99.90
2022-07-31T08:29:07.619Z,99.90
2022-07-31T08:31:09.640Z,99.90
2022-07-31T08:33:11.417Z,99.90
2022-07-31T08:35:13.257Z,99.90
2022-07-31T08:37:52.310Z,99.90
2022-07-31T08:39:37.307Z,99.90
2022-07-31T08:41:40.620Z,99.90
2022-07-31T08:43:59.823Z,99.90
2022-07-31T08:46:04.933Z,99.90
2022-07-31T08:48:07.819Z,99.60
2022-07-31T08:50:12.608Z,99.20
2022-07-31T08:52:19.342Z,98.10
2022-07-31T08:54:22.828Z,98.80
2022-07-31T08:56:25.662Z,99.40
2022-07-31T08:58:27.364Z,99.00
2022-07-31T09:00:29.098Z,98.20
2022-07-31T09:02:32.354Z,98.40
2022-07-31T09:04:34.355Z,98.60
2022-07-31T09:06:36.562Z,98.70
2022-07-31T09:08:38.294Z,98.60
2022-07-31T09:10:39.957Z,97.80
2022-07-31T09:12:41.635Z,97.80
2022-07-31T09:14:47.705Z,97.10
2022-07-31T09:16:50.355Z,97.50
2022-07-31T09:19:00.066Z,96.80
2022-07-31T09:21:03.507Z,96.30
2022-07-31T09:23:05.301Z,96.00
2022-07-31T09:25:08.731Z,94.80
2022-07-31T09:27:10.541Z,95.00
2022-07-31T09:29:13.004Z,94.50
2022-07-31T09:31:15.250Z,95.00
2022-07-31T09:33:17.616Z,93.90
2022-07-31T09:35:19.495Z,93.50
2022-07-31T09:37:25.200Z,93.50
2022-07-31T09:39:27.912Z,93.00
2022-07-31T09:42:01.374Z,93.40
2022-07-31T09:44:02.689Z,93.60
2022-07-31T09:46:12.333Z,91.00
2022-07-31T09:48:19.546Z,88.30
2022-07-31T09:50:28.651Z,86.50
2022-07-31T09:52:31.219Z,85.90
2022-07-31T09:54:32.980Z,87.50
2022-07-31T09:56:35.167Z,89.70
2022-07-31T09:58:36.844Z,88.50
2022-07-31T10:00:38.740Z,85.60
2022-07-31T10:02:40.598Z,83.10
2022-07-31T10:04:42.962Z,78.50
2022-07-31T10:06:48.878Z,76.10
2022-07-31T10:08:51.402Z,77.80
2022-07-31T10:10:53.092Z,72.10
2022-07-31T10:12:55.773Z,74.50
2022-07-31T10:15:02.388Z,73.90
2022-07-31T10:17:07.615Z,74.60
2022-07-31T10:19:12.038Z,71.10
2022-07-31T10:21:16.959Z,73.20
2022-07-31T10:23:22.686Z,71.10
2022-07-31T10:25:25.411Z,71.10
2022-07-31T10:27:27.576Z,69.20
2022-07-31T10:29:32.788Z,71.50
2022-07-31T10:31:35.303Z,72.30
2022-07-31T10:33:45.214Z,73.20
2022-07-31T10:35:59.932Z,68.80
2022-07-31T10:38:06.376Z,68.50
2022-07-31T10:40:26.116Z,67.50
2022-07-31T10:42:30.797Z,67.70
2022-07-31T10:44:39.830Z,67.20
2022-07-31T10:46:41.574Z,66.60
2022-07-31T10:48:52.851Z,67.50
2022-07-31T10:51:04.986Z,68.80
2022-07-31T10:53:07.970Z,65.70
2022-07-31T10:55:22.350Z,64.70
2022-07-31T10:57:28.176Z,64.30
2022-07-31T10:59:30.084Z,61.80
2022-07-31T11:01:31.925Z,61.90
2022-07-31T11:03:41.030Z,62.90
2022-07-31T11:06:01.707Z,61.10
2022-07-31T11:08:05.638Z,63.40
2022-07-31T11:10:10.377Z,61.30
2022-07-31T11:12:19.095Z,60.10
2022-07-31T11:14:38.898Z,61.00
2022-07-31T11:16:53.577Z,62.50
2022-07-31T11:19:09.567Z,60.40
2022-07-31T11:21:37.106Z,59.70
2022-07-31T11:23:33.543Z,61.60
2022-07-31T11:25:35.857Z,60.40
2022-07-31T11:27:38.633Z,59.70
2022-07-31T11:29:59.452Z,61.00
2022-07-31T11:32:06.333Z,61.50
2022-07-31T11:34:08.042Z,60.40
2022-07-31T11:36:12.880Z,59.00
2022-07-31T11:38:14.604Z,59.40
2022-07-31T11:40:19.675Z,59.00
2022-07-31T11:42:27.561Z,59.30
2022-07-31T11:44:30.053Z,59.50
2022-07-31T11:46:33.217Z,61.30
2022-07-31T11:48:42.236Z,59.00
2022-07-31T11:50:47.255Z,59.60
2022-07-31T11:52:49.140Z,58.70
2022-07-31T11:54:51.116Z,59.50
2022-07-31T11:56:53.957Z,60.00
2022-07-31T11:58:57.534Z,59.50
2022-07-31T12:01:00.350Z,58.70
2022-07-31T12:03:02.268Z,58.60
2022-07-31T12:05:04.463Z,59.50
2022-07-31T12:07:07.917Z,59.20
2022-07-31T12:10:02.731Z,59.90
2022-07-31T12:11:31.440Z,60.90
2022-07-31T12:13:33.423Z,62.30
2022-07-31T12:15:35.184Z,63.60
2022-07-31T12:17:36.981Z,61.40
2022-07-31T12:19:38.859Z,58.60
2022-07-31T12:21:40.732Z,59.70
2022-07-31T12:23:42.418Z,58.50
2022-07-31T12:25:46.040Z,57.80
2022-07-31T12:27:52.669Z,59.30
2022-07-31T12:29:54.528Z,58.90
2022-07-31T12:31:57.774Z,58.60
2022-07-31T12:33:59.436Z,57.60
2022-07-31T12:36:11.789Z,56.90
2022-07-31T12:38:38.145Z,57.90
2022-07-31T12:40:43.103Z,58.60
2022-07-31T12:42:44.891Z,58.00
2022-07-31T12:44:50.023Z,58.30
2022-07-31T12:46:51.823Z,60.20
2022-07-31T12:48:53.532Z,59.00
2022-07-31T12:50:55.220Z,58.80
2022-07-31T12:52:57.946Z,59.10
2022-07-31T12:54:59.629Z,59.10
2022-07-31T12:57:03.512Z,57.80
2022-07-31T12:59:06.177Z,58.40
2022-07-31T13:01:07.933Z,57.80
2022-07-31T13:03:09.677Z,56.90
2022-07-31T13:05:11.329Z,56.30
2022-07-31T13:07:14.896Z,58.40
2022-07-31T13:09:17.224Z,55.90
2022-07-31T13:11:18.950Z,56.90
2022-07-31T13:13:23.234Z,55.60
2022-07-31T13:15:30.768Z,55.20
2022-07-31T13:17:32.511Z,56.50
2022-07-31T13:19:34.210Z,56.50
2022-07-31T13:21:48.142Z,55.90
2022-07-31T13:23:55.888Z,55.90
2022-07-31T13:25:59.772Z,56.10
2022-07-31T13:28:01.441Z,55.90
2022-07-31T13:30:03.642Z,56.60
2022-07-31T13:32:05.607Z,55.90
2022-07-31T13:34:07.290Z,54.50
2022-07-31T13:36:09.282Z,55.40
2022-07-31T13:38:12.748Z,57.20
2022-07-31T13:40:14.547Z,55.30
2022-07-31T13:42:16.231Z,55.70
2022-07-31T13:44:18.049Z,54.90
2022-07-31T13:46:20.047Z,54.80
2022-07-31T13:48:21.943Z,54.70
2022-07-31T13:50:23.571Z,53.40
2022-07-31T13:52:25.258Z,53.00
2022-07-31T13:54:27.862Z,51.90
2022-07-31T13:56:34.073Z,51.50
2022-07-31T13:58:44.715Z,51.30
2022-07-31T14:00:46.530Z,51.70
2022-07-31T14:02:50.138Z,51.00
2022-07-31T14:04:51.815Z,52.10
2022-07-31T14:06:54.467Z,52.50
2022-07-31T14:08:56.283Z,50.70
2022-07-31T14:10:58.128Z,50.50
2022-07-31T14:12:59.947Z,50.80
2022-07-31T14:15:04.212Z,51.70
2022-07-31T14:17:05.902Z,51.60
2022-07-31T14:19:07.792Z,51.20
2022-07-31T14:21:09.435Z,50.30
2022-07-31T14:23:11.225Z,50.60
2022-07-31T14:25:13.252Z,51.20
2022-07-31T14:27:14.945Z,51.40
2022-07-31T14:29:16.692Z,51.40
2022-07-31T14:31:18.410Z,52.50
2022-07-31T14:33:20.217Z,54.30
2022-07-31T14:35:21.906Z,49.80
2022-07-31T14:37:23.708Z,49.30
2022-07-31T14:39:25.500Z,48.40
2022-07-31T14:41:27.217Z,48.70
2022-07-31T14:43:28.848Z,47.10
2022-07-31T14:45:30.732Z,48.30
2022-07-31T14:47:33.116Z,48.30
2022-07-31T14:50:10.673Z,49.20
2022-07-31T14:51:56.745Z,48.60
2022-07-31T14:53:59.615Z,49.60
2022-07-31T14:56:03.789Z,48.00
2022-07-31T14:58:05.855Z,49.40
2022-07-31T15:00:14.340Z,48.40
2022-07-31T15:02:21.491Z,47.80
2022-07-31T15:04:24.207Z,49.10
2022-07-31T15:06:48.574Z,49.00
2022-07-31T15:08:47.854Z,50.20
2022-07-31T15:10:49.534Z,49.10
2022-07-31T15:12:51.228Z,49.30
2022-07-31T15:14:52.917Z,48.50
2022-07-31T15:16:54.664Z,48.10
2022-07-31T15:18:56.575Z,48.00
2022-07-31T15:20:58.274Z,48.40
2022-07-31T15:23:00.203Z,48.60
2022-07-31T15:25:01.890Z,48.60
2022-07-31T15:27:03.936Z,48.70
2022-07-31T15:29:05.837Z,49.10
2022-07-31T15:31:07.577Z,49.20
2022-07-31T15:33:09.305Z,49.70
2022-07-31T15:35:11.905Z,50.40
2022-07-31T15:37:20.118Z,50.20
2022-07-31T15:39:22.342Z,49.60
2022-07-31T15:41:24.059Z,49.90
2022-07-31T15:43:25.722Z,50.30
2022-07-31T15:45:27.389Z,50.40
2022-07-31T15:47:29.102Z,50.10
2022-07-31T15:49:36.172Z,49.60
2022-07-31T15:51:46.206Z,49.40
2022-07-31T15:53:47.901Z,49.90
2022-07-31T15:55:49.630Z,48.20
2022-07-31T15:57:51.365Z,49.00
2022-07-31T15:59:56.177Z,48.30
2022-07-31T16:01:57.902Z,47.30
2022-07-31T16:03:59.615Z,47.20
2022-07-31T16:06:01.385Z,47.20
2022-07-31T16:08:28.599Z,47.80
2022-07-31T16:10:25.834Z,47.50
2022-07-31T16:12:27.653Z,47.90
2022-07-31T16:14:29.406Z,47.60
2022-07-31T16:16:31.083Z,47.70
2022-07-31T16:18:33.059Z,47.70
2022-07-31T16:20:34.788Z,48.80
2022-07-31T16:22:37.358Z,47.90
2022-07-31T16:24:39.047Z,47.60
2022-07-31T16:26:40.715Z,49.00
2022-07-31T16:28:42.407Z,49.50
2022-07-31T16:30:45.638Z,49.70
2022-07-31T16:32:47.448Z,49.90
2022-07-31T16:34:52.697Z,50.20
2022-07-31T16:36:55.830Z,51.10
2022-07-31T16:39:19.100Z,51.30
2022-07-31T16:41:19.157Z,52.00
2022-07-31T16:43:50.868Z,51.60
2022-07-31T16:45:42.605Z,52.40
2022-07-31T16:47:51.037Z,51.50
2022-07-31T16:49:53.894Z,51.60
2022-07-31T16:51:55.567Z,52.00
2022-07-31T16:54:14.211Z,51.90
2022-07-31T16:56:18.351Z,52.80
2022-07-31T16:58:24.736Z,51.90
2022-07-31T17:00:26.740Z,52.00
2022-07-31T17:02:28.487Z,52.60
2022-07-31T17:04:30.522Z,52.40
2022-07-31T17:06:36.327Z,52.30
2022-07-31T17:08:39.193Z,52.90
2022-07-31T17:10:40.868Z,52.30
2022-07-31T17:12:42.606Z,51.80
2022-07-31T17:14:44.279Z,52.10
2022-07-31T17:16:48.855Z,51.20
2022-07-31T17:18:52.859Z,51.50
2022-07-31T17:20:56.896Z,50.90
2022-07-31T17:22:59.307Z,51.20
2022-07-31T17:25:05.846Z,51.40
2022-07-31T17:27:08.550Z,51.90
2022-07-31T17:29:11.469Z,51.80
2022-07-31T17:31:13.177Z,51.90
2022-07-31T17:33:14.866Z,52.20
2022-07-31T17:35:16.582Z,52.50
2022-07-31T17:37:18.826Z,52.90
2022-07-31T17:39:20.582Z,53.00
2022-07-31T17:41:25.429Z,53.40
2022-07-31T17:43:27.911Z,53.80
2022-07-31T17:45:59.418Z,54.40
2022-07-31T17:48:08.436Z,54.50
2022-07-31T17:50:10.172Z,54.80
2022-07-31T17:52:12.159Z,55.00
2022-07-31T17:54:14.094Z,56.00
2022-07-31T17:56:16.114Z,55.50
2022-07-31T17:58:17.916Z,55.90
2022-07-31T18:00:19.814Z,56.10
2022-07-31T18:02:21.792Z,56.30
2022-07-31T18:04:23.547Z,57.40
2022-07-31T18:06:25.315Z,57.90
2022-07-31T18:08:29.204Z,57.80
2022-07-31T18:10:53.081Z,58.50
2022-07-31T18:12:57.466Z,57.80
2022-07-31T18:14:59.924Z,59.10
2022-07-31T18:17:02.058Z,61.00
2022-07-31T18:19:03.849Z,61.60
2022-07-31T18:21:05.512Z,61.40
2022-07-31T18:23:10.046Z,59.90
2022-07-31T18:25:12.045Z,61.50
2022-07-31T18:27:13.765Z,62.30
2022-07-31T18:29:16.954Z,61.30
2022-07-31T18:31:31.851Z,61.50
2022-07-31T18:33:34.486Z,62.90
2022-07-31T18:35:36.167Z,63.00
2022-07-31T18:37:37.828Z,62.40
2022-07-31T18:39:48.199Z,63.10
2022-07-31T18:41:51.619Z,63.40
2022-07-31T18:43:53.620Z,64.00
2022-07-31T18:45:55.282Z,64.60
2022-07-31T18:47:56.997Z,65.60
2022-07-31T18:51:02.787Z,66.60
2022-07-31T18:52:20.549Z,66.20
2022-07-31T18:54:22.230Z,65.00
2022-07-31T18:56:24.692Z,66.10
2022-07-31T18:58:26.436Z,67.30
2022-07-31T19:00:28.348Z,68.10
2022-07-31T19:02:30.117Z,68.10
2022-07-31T19:04:31.833Z,68.40
2022-07-31T19:06:33.488Z,68.20
2022-07-31T19:08:35.305Z,68.50
2022-07-31T19:10:37.037Z,68.80
2022-07-31T19:12:38.874Z,69.30
2022-07-31T19:14:40.559Z,69.60
2022-07-31T19:16:42.775Z,70.00
2022-07-31T19:18:45.015Z,70.90
2022-07-31T19:21:00.055Z,70.90
2022-07-31T19:23:12.677Z,71.60
2022-07-31T19:25:14.450Z,71.50
2022-07-31T19:27:16.309Z,72.30
2022-07-31T19:29:18.993Z,72.40
2022-07-31T19:31:20.800Z,72.80
2022-07-31T19:33:22.610Z,74.10
2022-07-31T19:35:24.450Z,74.40
2022-07-31T19:37:26.249Z,75.20
2022-07-31T19:39:27.940Z,75.50
2022-07-31T19:41:29.661Z,76.20
2022-07-31T19:43:31.474Z,76.10
2022-07-31T19:45:33.178Z,76.30
2022-07-31T19:47:35.128Z,77.30
2022-07-31T19:49:38.472Z,77.30
2022-07-31T19:51:40.917Z,78.00
2022-07-31T19:53:43.137Z,78.50
2022-07-31T19:55:44.846Z,78.40
2022-07-31T19:57:46.589Z,79.00
2022-07-31T19:59:48.331Z,79.00
2022-07-31T20:01:50.078Z,79.50
2022-07-31T20:03:53.169Z,80.40
2022-07-31T20:05:56.376Z,80.30
2022-07-31T20:07:58.187Z,80.10
2022-07-31T20:10:00.210Z,81.30
2022-07-31T20:12:02.118Z,80.40
2022-07-31T20:14:04.028Z,80.40
2022-07-31T20:16:06.217Z,80.20
2022-07-31T20:18:08.109Z,80.30
2022-07-31T20:20:15.755Z,80.60
2022-07-31T20:22:17.966Z,81.00
2022-07-31T20:24:19.791Z,81.00
2022-07-31T20:26:22.546Z,81.10
2022-07-31T20:28:24.296Z,81.50
2022-07-31T20:30:25.999Z,81.70
2022-07-31T20:32:27.683Z,81.80
2022-07-31T20:34:30.622Z,81.80
2022-07-31T20:36:32.354Z,82.10
2022-07-31T20:38:34.109Z,82.80
2022-07-31T20:40:35.892Z,82.20
2022-07-31T20:42:37.724Z,82.20
2022-07-31T20:44:41.443Z,81.90
2022-07-31T20:46:43.214Z,82.00
2022-07-31T20:48:45.323Z,83.80
2022-07-31T20:50:47.755Z,82.60
2022-07-31T20:52:50.529Z,82.60
2022-07-31T20:54:52.228Z,83.00
2022-07-31T20:56:54.126Z,82.30
2022-07-31T20:58:55.930Z,82.70
2022-07-31T21:00:57.719Z,83.20
2022-07-31T21:02:59.528Z,83.20
2022-07-31T21:05:02.042Z,83.00
2022-07-31T21:07:03.766Z,84.40
2022-07-31T21:09:06.319Z,84.10
2022-07-31T21:11:08.270Z,84.10
2022-07-31T21:13:10.124Z,84.70
2022-07-31T21:15:43.409Z,84.60
2022-07-31T21:17:33.800Z,85.10
2022-07-31T21:19:35.512Z,84.70
2022-07-31T21:21:37.243Z,84.30
2022-07-31T21:23:38.945Z,85.00
2022-07-31T21:25:42.719Z,84.40
2022-07-31T21:27:44.637Z,85.30
2022-07-31T21:29:46.486Z,85.50
2022-07-31T21:31:49.171Z,85.80
2022-07-31T21:33:52.053Z,86.00
2022-07-31T21:35:54.595Z,87.20
2022-07-31T21:37:57.100Z,86.60
2022-07-31T21:40:00.203Z,87.10
2022-07-31T21:42:02.279Z,87.10
2022-07-31T21:44:04.193Z,86.90
2022-07-31T21:46:14.382Z,87.00
2022-07-31T21:48:16.268Z,87.20
2022-07-31T21:50:28.779Z,87.80
2022-07-31T21:52:31.095Z,88.10
2022-07-31T21:54:32.833Z,88.10
2022-07-31T21:56:34.524Z,88.30
2022-07-31T21:58:36.321Z,88.70
2022-07-31T22:00:38.216Z,89.10
2022-07-31T22:02:39.890Z,88.90
2022-07-31T22:05:01.519Z,89.50
2022-07-31T22:07:21.880Z,89.60
2022-07-31T22:09:26.729Z,89.50
2022-07-31T22:11:30.448Z,90.10
2022-07-31T22:13:32.255Z,90.40
2022-07-31T22:15:52.595Z,90.50
2022-07-31T22:17:56.062Z,90.90
2022-07-31T22:20:00.550Z,90.80
2022-07-31T22:22:02.591Z,90.80
2022-07-31T22:24:05.096Z,90.70
2022-07-31T22:26:06.975Z,91.00
2022-07-31T22:28:08.838Z,90.80
2022-07-31T22:30:10.923Z,91.10
2022-07-31T22:32:12.765Z,91.00
2022-07-31T22:34:14.470Z,91.20
2022-07-31T22:36:36.182Z,91.20
2022-07-31T22:38:38.307Z,91.40
2022-07-31T22:40:40.515Z,91.40
2022-07-31T22:42:56.145Z,91.60
2022-07-31T22:44:58.392Z,91.60
2022-07-31T22:47:00.125Z,91.70
2022-07-31T22:49:02.387Z,91.70
2022-07-31T22:51:04.347Z,92.00
2022-07-31T22:53:06.111Z,92.10
2022-07-31T22:55:07.962Z,92.20
2022-07-31T22:57:09.670Z,92.10
2022-07-31T22:59:11.375Z,92.10
2022-07-31T23:01:13.132Z,92.20
2022-07-31T23:03:15.166Z,92.00
2022-07-31T23:05:16.827Z,92.20
2022-07-31T23:07:18.575Z,92.40
2022-07-31T23:09:20.233Z,92.30
2022-07-31T23:11:22.515Z,92.60
2022-07-31T23:13:24.203Z,92.90
2022-07-31T23:15:25.929Z,93.00
2022-07-31T23:17:27.702Z,92.70
2022-07-31T23:19:30.360Z,92.80
2022-07-31T23:21:32.038Z,92.90
2022-07-31T23:23:33.742Z,93.10
2022-07-31T23:25:35.425Z,92.60
2022-07-31T23:27:37.109Z,93.10
2022-07-31T23:29:41.591Z,92.70
2022-07-31T23:31:43.502Z,92.40
2022-07-31T23:33:45.629Z,92.90
2022-07-31T23:35:47.356Z,93.30
2022-07-31T23:37:48.968Z,93.40
2022-07-31T23:39:50.697Z,93.60
2022-07-31T23:42:11.022Z,93.90
2022-07-31T23:44:12.773Z,93.80
2022-07-31T23:46:20.386Z,93.70
2022-07-31T23:48:29.310Z,94.20
2022-07-31T23:50:32.016Z,94.10
2022-07-31T23:52:33.777Z,94.30
2022-07-31T23:54:35.607Z,94.50
2022-07-31T23:56:37.322Z,94.60
2022-07-31T23:58:39.053Z,94.70
